Pacific Junction, Iowa
Current Conditions -  °F | °C
As of 5:55 PM on Monday 22 Dec 2014 (Local Time) from KPMV Reporting Station
Light Rain Light Rain  
Wind Chill: 33°   Ceiling: 2000
Heat Index: 41°   Visibility: 10mi
Dew Point: 39°   Wind: 14mph
Humidity: 93%   Direction: 290°WNW
Pressure: 29.44"   Gusts: 17mph
Location:  41.02°N, 95.8°W
Report Text: KPMV 222355Z AUTO 29012G15KT 10SM -RA SCT008 BKN020 OVC026 05/04 A2944 RMK AO2 P0001 60011 T00500040 10058 20050
Loading
Personal Weather Stations






























Interactive Weather Map New forecast layout! Learn more

10-Day Weather Forecast

Advertisements
Track Severe Weather on mobile